Nearby METAR Reports

 

EGVO - Odiham Raf, United Kingdom
Distance from station: ESE 6mi, 10km
Updated: Wed, 20-Jun-2018 07:50 BST
Mist, Overcast
Mist, Overcast
 Wind from SW
Wind: SW 12 mph , 19 km/h
Temperature: 57°F , 14°C
Dew Point: 57°F , 14°C
Humidity: 100%
Barometer: 30.15 inHg , 1021 hPa
Summary: Mist
Clouds: Overcast
Visibility: 3 miles , 5 km
Cloud details: Mostly Cloudy 200 ft
Overcast 300 ft
2018/06/20 06:50 EGVO 200650Z 23010KT 5000 BR BKN002 OVC003 14/14 Q1021 AMB BECMG BKN003 YLO2
EGLF - Farnborough, United Kingdom
Distance from station: E 14mi, 22km
Updated: Wed, 20-Jun-2018 07:50 BST
Mostly Cloudy
Mostly Cloudy
 Wind from SW
Wind: SW 9 mph , 15 km/h
Temperature: 59°F , 15°C
Dew Point: 55°F , 13°C
Humidity: 88%
Barometer: 30.15 inHg , 1021 hPa
Clouds: Mostly Cloudy
Visibility: 6 miles , 10 km
Cloud details: Mostly Cloudy 800 ft
2018/06/20 06:50 EGLF 200650Z 22008KT 190V260 9999 BKN008 15/13 Q1021
 
EGVP - Middle Wallop, United Kingdom
Distance from station: WSW 23mi, 36km
Updated: Wed, 20-Jun-2018 07:50 BST
Mist, Overcast
Mist, Overcast
 Wind from SW
Wind: SW 7 mph , 11 km/h
Temperature: 59°F , 15°C
Dew Point: 57°F , 14°C
Humidity: 94%
Barometer: 30.15 inHg , 1021 hPa
Summary: Mist
Clouds: Overcast
Visibility: 5 miles , 8 km
Cloud details: Few Clouds 300 ft
Overcast 400 ft
2018/06/20 06:50 EGVP 200650Z 22006KT 8000 BR FEW003 OVC004 15/14 Q1021 YLO2 NOSIG
EGHI - Southampton Wx C, United Kingdom
Distance from station: SSW 24mi, 39km
Updated: Wed, 20-Jun-2018 07:50 BST
Mostly Cloudy
Mostly Cloudy
 Wind from WSW
Wind: WSW 10 mph , 17 km/h
Temperature: 57°F , 14°C
Dew Point: 55°F , 13°C
Humidity: 94%
Barometer: 30.18 inHg , 1022 hPa
Clouds: Mostly Cloudy
Visibility: 6 miles , 9 km
Cloud details: Mostly Cloudy 600 ft
2018/06/20 06:50 EGHI 200650Z 24009KT 210V270 9000 BKN006 14/13 Q1022
 
EGUB - Benson Raf, United Kingdom
Distance from station: N 24mi, 39km
Updated: Wed, 20-Jun-2018 07:38 BST
Overcast
Overcast
 Wind from SSW
Wind: SSW 10 mph , 17 km/h
Temperature: 61°F , 16°C
Dew Point: 59°F , 15°C
Humidity: 94%
Barometer: 30.12 inHg , 1020 hPa
Clouds: Overcast
Visibility: 6 miles , 10 km
Cloud details: Overcast 700 ft
2018/06/20 06:38 EGUB 200638Z 21009KT 9999 OVC007 16/15 Q1020 GRN NOSIG
EGDM - Boscombe Down, United Kingdom
Distance from station: WSW 29mi, 47km
Updated: Wed, 20-Jun-2018 07:50 BST
Light drizzle, Overcast
Light drizzle, Overcast
 Wind from SSW
Wind: SSW 9 mph , 15 km/h
Temperature: 59°F , 15°C
Dew Point: 57°F , 14°C
Humidity: 94%
Barometer: 30.15 inHg , 1021 hPa
Summary: Light Drizzle
Clouds: Overcast
Visibility: 6 miles , 10 km
Cloud details: Overcast 400 ft
2018/06/20 06:50 EGDM 200650Z 21008KT 9999 -DZ OVC004 15/14 Q1021 YLO2 BECMG BKN006 YLO1
 
EGLL - London/Heathrow, United Kingdom
Distance from station: ENE 31mi, 51km
Updated: Wed, 20-Jun-2018 07:50 BST
Overcast
Overcast
 Wind from SW
Wind: SW 12 mph , 19 km/h
Temperature: 61°F , 16°C
Dew Point: 59°F , 15°C
Humidity: 94%
Barometer: 30.15 inHg , 1021 hPa
Clouds: Overcast
Visibility: 6 miles , 10 km
Cloud details: Overcast 600 ft
2018/06/20 06:50 EGLL 200650Z AUTO 22010KT 190V250 9999 OVC006 16/15 Q1021 NOSIG
EGWU - Northolt Raf, United Kingdom
Distance from station: NE 35mi, 56km
Updated: Wed, 20-Jun-2018 07:50 BST
Haze, Overcast
Haze, Overcast
 Wind from SW
Wind: SW 9 mph , 15 km/h
Temperature: 61°F , 16°C
Dew Point: 59°F , 15°C
Humidity: 94%
Barometer: 30.15 inHg , 1021 hPa
Summary: Haze
Clouds: Overcast
Visibility: 4 miles , 7 km
Cloud details: Overcast 600 ft
2018/06/20 06:50 EGWU 200650Z 22008KT 7000 HZ OVC006 16/15 Q1021 YLO1 BECMG 9999 BKN012
 
EGVA - Fairford Raf, United Kingdom
Distance from station: NW 40mi, 65km
Updated: Wed, 20-Jun-2018 07:56 BST
Overcast
Overcast
 Wind from SW
Wind: SW 14 mph , 22 km/h
Temperature: 63°F , 17°C
Dew Point: 59°F , 15°C
Humidity: 88%
Barometer: 30.11 inHg , 1019.6 hPa
Clouds: Overcast
Visibility: 6 miles , 10 km
Cloud details: Overcast 800 ft
2018/06/20 06:56 EGVA 200656Z AUTO 23012KT 9999 OVC008 17/15 A3011 RMK AO2 SLP198 T01670147 $
EGKK - London/Gatwick A, United Kingdom
Distance from station: ESE 41mi, 66km
Updated: Wed, 20-Jun-2018 07:50 BST
Mostly Cloudy
Mostly Cloudy
 Wind from SW
Wind: SW 8 mph , 13 km/h
Temperature: 61°F , 16°C
Dew Point: 59°F , 15°C
Humidity: 94%
Barometer: 30.18 inHg , 1022 hPa
Clouds: Mostly Cloudy
Visibility: 6 miles , 10 km
Cloud details: Mostly Cloudy 500 ft
2018/06/20 06:50 EGKK 200650Z 22007KT 190V260 9999 BKN005 16/15 Q1022
 
EGVN - Brize Norton Raf, United Kingdom
Distance from station: NNW 41mi, 66km
Updated: Wed, 20-Jun-2018 07:50 BST
Mostly Cloudy
Mostly Cloudy
 Wind from SW
Wind: SW 7 mph , 11 km/h
Temperature: 63°F , 17°C
Dew Point: 59°F , 15°C
Humidity: 88%
Barometer: 30.12 inHg , 1020 hPa
Clouds: Mostly Cloudy
Visibility: 6 miles , 10 km
Cloud details: Mostly Cloudy 1000 ft
Mostly Cloudy 1500 ft
2018/06/20 06:50 EGVN 200650Z 22006KT 9999 BKN010 BKN015 17/15 Q1020 TEMPO BKN015
EGKA - Shoreham-By-Sea, United Kingdom
Distance from station: SE 45mi, 73km
Updated: Wed, 20-Jun-2018 07:50 BST
Light drizzle, Mostly cloudy
Light drizzle, Mostly cloudy
 Wind from SW
Wind: SW 14 mph , 22 km/h
Temperature: 59°F , 15°C
Dew Point: 57°F , 14°C
Humidity: 94%
Barometer: 30.18 inHg , 1022 hPa
Summary: Light Drizzle
Clouds: Mostly Cloudy
Visibility: 3 miles , 5 km
Cloud details: Mostly Cloudy 600 ft
2018/06/20 06:50 EGKA 200650Z 23012KT 5000 -DZ BKN006 15/14 Q1022
 
EGHH - Bournemouth Airp, United Kingdom
Distance from station: SW 46mi, 75km
Updated: Wed, 20-Jun-2018 07:50 BST
Overcast
Overcast
 Wind from WSW
Wind: WSW 10 mph , 17 km/h
Temperature: 59°F , 15°C
Dew Point: 57°F , 14°C
Humidity: 94%
Barometer: 30.18 inHg , 1022 hPa
Clouds: Overcast
Visibility: 6 miles , 9 km
Cloud details: Overcast 600 ft
2018/06/20 06:50 EGHH 200650Z 25009KT 9000 OVC006 15/14 Q1022
EGKB - Biggin Hill, United Kingdom
Distance from station: E 48mi, 77km
Updated: Wed, 20-Jun-2018 07:50 BST
Mist, Mostly cloudy
Mist, Mostly cloudy
 Wind from SW
Wind: SW 13 mph , 20 km/h
Temperature: 57°F , 14°C
Dew Point: 57°F , 14°C
Humidity: 100%
Barometer: 30.18 inHg , 1022 hPa
Summary: Mist
Clouds: Mostly Cloudy
Visibility: 2 miles , 3 km
Cloud details: Mostly Cloudy 300 ft
2018/06/20 06:50 EGKB 200650Z 22011KT 3000 BR BKN003 14/14 Q1022

Metar display script from Saratoga-Weather.org